TAF TJSJ
TJSJ 090540Z 0906/1006 VRB03KT P6SM VCSH FEW035 SCT060 SCT080 FM091400 06015KT P6SM FEW025 SCT035 SCT050 FM092300 07006KT P6SM SCT035 SCT080=
METAR TJSJ
WC TJSJ
WS TJSJ
WV TJSJ